TimeEST,TemperatureF,Dew PointF,Humidity,Sea Level PressureIn,VisibilityMPH,Wind Direction,Wind SpeedMPH,Gust SpeedMPH,PrecipitationIn,Events,Conditions,WindDirDegrees,DateUTC
12:53 AM,28.9,16.0,58,29.76,10.0,NNW,8.1,19.6,0.00,,Overcast,340,2013-03-03 05:53:00
1:53 AM,28.0,17.1,63,29.75,10.0,Variable,3.5,-,N/A,,Overcast,0,2013-03-03 06:53:00
2:53 AM,28.0,15.1,58,29.74,10.0,North,11.5,17.3,N/A,,Overcast,350,2013-03-03 07:53:00
3:53 AM,28.0,15.1,58,29.74,10.0,NNW,6.9,-,N/A,,Overcast,330,2013-03-03 08:53:00
4:53 AM,27.0,15.1,61,29.74,10.0,NW,10.4,-,N/A,,Overcast,320,2013-03-03 09:53:00
5:53 AM,27.0,15.1,61,29.74,10.0,North,8.1,16.1,N/A,,Overcast,350,2013-03-03 10:53:00
6:53 AM,27.0,15.1,61,29.75,10.0,Variable,6.9,-,N/A,,Overcast,0,2013-03-03 11:53:00
7:01 AM,26.6,15.8,64,29.74,10.0,Variable,6.9,-,N/A,,Overcast,0,2013-03-03 12:01:00
7:53 AM,27.0,15.1,61,29.76,10.0,North,8.1,-,N/A,,Overcast,10,2013-03-03 12:53:00
8:12 AM,26.6,15.8,64,29.75,10.0,Variable,6.9,-,N/A,,Overcast,0,2013-03-03 13:12:00
8:32 AM,28.4,15.8,59,29.74,10.0,Variable,3.5,-,N/A,,Overcast,0,2013-03-03 13:32:00
8:45 AM,28.4,15.8,59,29.74,10.0,North,12.7,18.4,N/A,,Overcast,350,2013-03-03 13:45:00
8:53 AM,28.0,15.1,58,29.75,10.0,Variable,6.9,-,N/A,,Overcast,0,2013-03-03 13:53:00
9:53 AM,28.0,14.0,56,29.75,10.0,Variable,3.5,-,N/A,,Overcast,0,2013-03-03 14:53:00
10:53 AM,30.9,15.1,52,29.74,10.0,North,6.9,-,N/A,,Overcast,360,2013-03-03 15:53:00
11:53 AM,34.0,17.1,50,29.73,10.0,NNW,8.1,19.6,N/A,,Mostly Cloudy,340,2013-03-03 16:53:00
12:53 PM,34.0,16.0,48,29.71,10.0,NNW,10.4,23.0,N/A,,Scattered Clouds,330,2013-03-03 17:53:00
1:53 PM,35.1,17.1,48,29.70,10.0,NW,9.2,19.6,N/A,,Partly Cloudy,320,2013-03-03 18:53:00
2:53 PM,35.1,17.1,48,29.70,10.0,NW,9.2,17.3,N/A,,Scattered Clouds,320,2013-03-03 19:53:00
3:53 PM,34.0,17.1,50,29.71,10.0,NNW,13.8,19.6,N/A,,Scattered Clouds,330,2013-03-03 20:53:00
5:53 PM,30.9,15.1,52,29.74,10.0,North,5.8,-,N/A,,Mostly Cloudy,350,2013-03-03 22:53:00
6:53 PM,30.0,15.1,54,29.75,10.0,Calm,Calm,-,N/A,,Clear,0,2013-03-03 23:53:00
7:53 PM,28.9,14.0,54,29.77,10.0,NNW,8.1,18.4,N/A,,Partly Cloudy,330,2013-03-04 00:53:00
8:53 PM,28.0,12.9,53,29.79,10.0,NW,9.2,19.6,N/A,,Clear,310,2013-03-04 01:53:00
9:53 PM,27.0,14.0,58,29.79,10.0,NW,8.1,16.1,N/A,,Clear,320,2013-03-04 02:53:00
10:53 PM,26.1,12.9,58,29.79,10.0,Variable,6.9,-,N/A,,Clear,0,2013-03-04 03:53:00
11:53 PM,26.1,12.0,55,29.79,10.0,North,3.5,-,N/A,,Clear,360,2013-03-04 04:53:00